createdAt,value
2023-05-14T00:04:09.355Z,3.42
2023-05-14T00:09:12.556Z,3.47
2023-05-14T00:14:15.370Z,3.05
2023-05-14T00:19:18.339Z,2.47
2023-05-14T00:24:21.480Z,2.42
2023-05-14T00:29:24.387Z,2.50
2023-05-14T00:34:27.337Z,2.20
2023-05-14T00:39:30.119Z,2.60
2023-05-14T00:44:32.996Z,2.58
2023-05-14T00:49:36.170Z,2.63
2023-05-14T00:54:39.208Z,2.85
2023-05-14T00:59:43.038Z,2.75
2023-05-14T01:04:46.036Z,3.20
2023-05-14T01:10:03.281Z,3.47
2023-05-14T01:15:12.073Z,2.97
2023-05-14T01:20:15.083Z,2.92
2023-05-14T01:25:17.950Z,3.60
2023-05-14T01:30:27.458Z,3.40
2023-05-14T01:35:31.356Z,3.00
2023-05-14T01:40:35.100Z,3.22
2023-05-14T01:45:38.370Z,2.70
2023-05-14T01:50:41.401Z,2.30
2023-05-14T01:55:44.378Z,3.00
2023-05-14T02:00:47.542Z,2.15
2023-05-14T02:05:50.401Z,2.75
2023-05-14T02:10:53.129Z,2.47
2023-05-14T02:15:56.301Z,2.42
2023-05-14T02:20:59.409Z,2.50
2023-05-14T02:26:02.608Z,2.85
2023-05-14T02:31:05.799Z,3.08
2023-05-14T02:36:09.015Z,2.63
2023-05-14T02:41:11.917Z,2.92
2023-05-14T02:46:14.883Z,2.60
2023-05-14T02:51:17.761Z,3.08
2023-05-14T02:56:21.542Z,4.97
2023-05-14T03:01:24.528Z,5.68
2023-05-14T03:06:28.045Z,5.38
2023-05-14T03:11:30.929Z,3.85
2023-05-14T03:16:34.081Z,3.90
2023-05-14T03:21:37.111Z,3.78
2023-05-14T03:26:40.061Z,3.53
2023-05-14T03:31:44.114Z,3.50
2023-05-14T03:36:47.011Z,9.00
2023-05-14T03:41:50.356Z,8.73
2023-05-14T03:46:53.324Z,5.55
2023-05-14T03:51:57.785Z,3.83
2023-05-14T03:57:00.960Z,8.13
2023-05-14T04:02:03.751Z,10.25
2023-05-14T04:07:06.832Z,12.45
2023-05-14T04:12:10.277Z,20.88
2023-05-14T04:17:13.721Z,11.15
2023-05-14T04:22:16.725Z,4.13
2023-05-14T04:27:21.621Z,4.03
2023-05-14T04:32:24.964Z,3.78
2023-05-14T04:37:27.693Z,3.60
2023-05-14T04:42:30.976Z,3.15
2023-05-14T04:47:34.322Z,2.80
2023-05-14T04:52:37.219Z,3.10
2023-05-14T04:57:40.053Z,2.88
2023-05-14T05:02:43.087Z,4.55
2023-05-14T05:07:45.894Z,3.22
2023-05-14T05:12:49.010Z,4.40
2023-05-14T05:17:52.233Z,3.33
2023-05-14T05:22:55.270Z,3.47
2023-05-14T05:27:58.306Z,3.65
2023-05-14T05:33:01.558Z,4.50
2023-05-14T05:38:04.736Z,3.80
2023-05-14T05:43:07.645Z,2.55
2023-05-14T05:48:10.589Z,3.50
2023-05-14T05:53:13.312Z,3.88
2023-05-14T05:58:17.587Z,3.88
2023-05-14T06:03:20.795Z,4.43
2023-05-14T06:08:23.664Z,3.83
2023-05-14T06:13:26.529Z,2.83
2023-05-14T06:18:29.555Z,2.60
2023-05-14T06:23:32.692Z,3.38
2023-05-14T06:28:36.085Z,3.72
2023-05-14T06:33:38.816Z,3.60
2023-05-14T06:38:41.502Z,2.83
2023-05-14T06:43:44.401Z,2.60
2023-05-14T06:48:47.296Z,3.38
2023-05-14T06:53:50.493Z,2.15
2023-05-14T06:58:53.718Z,2.78
2023-05-14T07:03:56.713Z,2.28
2023-05-14T07:08:59.911Z,2.22
2023-05-14T07:14:02.940Z,1.92
2023-05-14T07:19:06.137Z,2.38
2023-05-14T07:24:09.417Z,2.10
2023-05-14T07:29:12.667Z,2.22
2023-05-14T07:34:15.603Z,2.35
2023-05-14T07:39:50.642Z,2.80
2023-05-14T07:44:53.687Z,1.90
2023-05-14T07:49:57.350Z,2.75
2023-05-14T07:55:01.696Z,2.22
2023-05-14T08:00:10.255Z,1.92
2023-05-14T08:05:17.142Z,1.80
2023-05-14T08:10:20.322Z,1.75
2023-05-14T08:15:25.175Z,1.92
2023-05-14T08:20:32.979Z,2.50
2023-05-14T08:25:36.225Z,1.45
2023-05-14T08:30:44.010Z,2.15
2023-05-14T08:35:46.816Z,1.90
2023-05-14T08:40:55.000Z,2.05
2023-05-14T08:46:02.431Z,2.25
2023-05-14T08:51:05.483Z,1.80
2023-05-14T08:56:09.345Z,1.65
2023-05-14T09:01:12.287Z,2.10
2023-05-14T09:06:16.321Z,2.10
2023-05-14T09:11:19.514Z,1.70
2023-05-14T09:16:22.717Z,2.63
2023-05-14T09:21:25.850Z,1.98
2023-05-14T09:26:32.143Z,2.13
2023-05-14T09:31:35.598Z,2.13
2023-05-14T09:36:38.920Z,1.80
2023-05-14T09:41:42.001Z,1.75
2023-05-14T09:46:45.822Z,1.90
2023-05-14T09:51:49.483Z,1.92
2023-05-14T09:56:53.365Z,2.10
2023-05-14T10:01:58.387Z,1.90
2023-05-14T10:07:04.242Z,2.22
2023-05-14T10:12:07.976Z,2.08
2023-05-14T10:17:18.597Z,2.40
2023-05-14T10:22:23.382Z,1.48
2023-05-14T10:27:26.957Z,2.10
2023-05-14T10:32:33.408Z,2.10
2023-05-14T10:37:36.445Z,1.70
2023-05-14T10:42:46.677Z,2.13
2023-05-14T10:47:49.601Z,2.20
2023-05-14T10:52:52.795Z,2.35
2023-05-14T10:57:59.375Z,2.15
2023-05-14T11:03:04.279Z,1.95
2023-05-14T11:08:08.691Z,1.52
2023-05-14T11:13:12.263Z,2.00
2023-05-14T11:18:26.609Z,2.40
2023-05-14T11:23:29.796Z,1.98
2023-05-14T11:28:33.276Z,1.90
2023-05-14T11:33:36.441Z,2.10
2023-05-14T11:43:43.022Z,1.73
2023-05-14T11:48:46.362Z,1.90
2023-05-14T11:53:49.373Z,1.40
2023-05-14T11:59:01.122Z,1.65
2023-05-14T12:04:05.032Z,1.63
2023-05-14T12:09:08.051Z,1.90
2023-05-14T12:14:22.691Z,1.70
2023-05-14T12:19:31.256Z,1.70
2023-05-14T12:24:34.176Z,2.10
2023-05-14T12:29:39.206Z,1.70
2023-05-14T12:34:42.211Z,2.00
2023-05-14T12:39:45.393Z,2.10
2023-05-14T12:49:56.073Z,2.10
2023-05-14T12:54:59.093Z,2.47
2023-05-14T13:00:02.406Z,2.05
2023-05-14T13:05:07.666Z,2.22
2023-05-14T13:10:11.720Z,2.15
2023-05-14T13:15:15.104Z,2.05
2023-05-14T13:20:18.690Z,2.00
2023-05-14T13:25:21.742Z,2.47
2023-05-14T13:30:25.204Z,2.05
2023-05-14T13:40:30.969Z,2.90
2023-05-14T13:45:34.424Z,2.60
2023-05-14T13:50:37.165Z,2.33
2023-05-14T13:55:39.983Z,2.30
2023-05-14T14:00:43.491Z,2.70
2023-05-14T14:05:46.619Z,2.55
2023-05-14T14:10:51.337Z,2.75
2023-05-14T14:20:56.955Z,2.38
2023-05-14T14:25:59.977Z,2.45
2023-05-14T14:31:03.502Z,3.28
2023-05-14T14:41:10.284Z,2.67
2023-05-14T14:46:14.154Z,2.63
2023-05-14T14:51:17.211Z,2.45
2023-05-14T14:56:20.081Z,3.03
2023-05-14T15:01:23.545Z,3.00
2023-05-14T15:06:27.108Z,3.78
2023-05-14T15:11:29.722Z,4.95
2023-05-14T15:16:32.810Z,5.05
2023-05-14T15:21:35.925Z,5.18
2023-05-14T15:26:38.786Z,4.70
2023-05-14T15:31:41.785Z,6.03
2023-05-14T15:36:44.761Z,8.93
2023-05-14T15:41:47.745Z,9.18
2023-05-14T15:46:51.342Z,9.10
2023-05-14T15:51:54.993Z,10.05
2023-05-14T15:56:57.776Z,16.30
2023-05-14T16:02:00.744Z,9.90
2023-05-14T16:07:05.455Z,7.00
2023-05-14T16:12:09.493Z,8.63
2023-05-14T16:17:12.677Z,9.10
2023-05-14T16:22:15.643Z,8.75
2023-05-14T16:27:21.388Z,7.82
2023-05-14T16:32:25.514Z,7.47
2023-05-14T16:37:28.637Z,10.38
2023-05-14T16:42:32.087Z,12.32
2023-05-14T16:47:35.286Z,12.20
2023-05-14T16:52:38.247Z,10.38
2023-05-14T16:57:41.244Z,11.70
2023-05-14T17:02:44.295Z,11.30
2023-05-14T17:07:47.454Z,10.73
2023-05-14T17:12:50.573Z,10.25
2023-05-14T17:17:53.585Z,6.80
2023-05-14T17:22:56.741Z,6.90
2023-05-14T17:28:00.530Z,6.32
2023-05-14T17:33:03.614Z,8.10
2023-05-14T17:38:07.669Z,6.40
2023-05-14T17:43:10.683Z,6.68
2023-05-14T17:48:13.667Z,6.93
2023-05-14T17:53:16.888Z,6.25
2023-05-14T17:58:20.776Z,6.13
2023-05-14T18:08:26.477Z,5.85
2023-05-14T18:13:29.428Z,6.43
2023-05-14T18:18:32.548Z,5.53
2023-05-14T18:23:35.274Z,6.25
2023-05-14T18:28:38.268Z,5.95
2023-05-14T18:33:41.361Z,5.60
2023-05-14T18:38:44.376Z,6.18
2023-05-14T18:43:47.270Z,5.80
2023-05-14T18:48:50.831Z,5.82
2023-05-14T18:53:53.639Z,6.22
2023-05-14T18:58:56.875Z,13.90
2023-05-14T19:03:59.669Z,12.73
2023-05-14T19:09:02.442Z,12.55
2023-05-14T19:14:05.299Z,9.63
2023-05-14T19:19:08.561Z,7.65
2023-05-14T19:24:11.957Z,9.73
2023-05-14T19:29:14.682Z,9.00
2023-05-14T19:34:17.875Z,7.38
2023-05-14T19:39:21.173Z,6.45
2023-05-14T19:44:24.343Z,7.13
2023-05-14T19:49:27.384Z,6.57
2023-05-14T19:54:30.199Z,7.28
2023-05-14T19:59:33.309Z,6.55
2023-05-14T20:04:40.242Z,7.07
2023-05-14T20:09:43.336Z,10.52
2023-05-14T20:14:46.466Z,11.93
2023-05-14T20:19:49.397Z,9.23
2023-05-14T20:24:52.918Z,14.23
2023-05-14T20:29:55.824Z,11.48
2023-05-14T20:35:02.565Z,9.73
2023-05-14T20:40:09.738Z,9.00
2023-05-14T20:45:12.503Z,14.82
2023-05-14T20:50:15.460Z,15.73
2023-05-14T20:55:19.350Z,15.05
2023-05-14T21:00:22.919Z,14.73
2023-05-14T21:05:26.249Z,12.20
2023-05-14T21:10:29.255Z,13.77
2023-05-14T21:15:32.910Z,13.85
2023-05-14T21:20:35.877Z,14.30
2023-05-14T21:25:38.667Z,13.55
2023-05-14T21:30:41.566Z,13.68
2023-05-14T21:35:48.264Z,11.52
2023-05-14T21:40:51.813Z,7.95
2023-05-14T21:45:54.839Z,9.93
2023-05-14T21:50:58.221Z,11.05
2023-05-14T21:56:01.250Z,9.20
2023-05-14T22:01:11.770Z,9.52
2023-05-14T22:06:14.880Z,8.43
2023-05-14T22:11:17.633Z,8.00
2023-05-14T22:16:22.685Z,7.75
2023-05-14T22:21:25.854Z,8.40
2023-05-14T22:26:28.905Z,7.97
2023-05-14T22:31:31.893Z,8.60
2023-05-14T22:36:35.008Z,6.82
2023-05-14T22:41:37.887Z,6.30
2023-05-14T22:46:41.450Z,4.97
2023-05-14T22:51:44.325Z,4.05
2023-05-14T22:56:47.567Z,4.32
2023-05-14T23:01:50.531Z,3.40
2023-05-14T23:06:53.626Z,3.55
2023-05-14T23:11:56.504Z,3.55
2023-05-14T23:16:59.528Z,3.15
2023-05-14T23:22:02.271Z,4.30
2023-05-14T23:27:05.740Z,4.50
2023-05-14T23:32:09.033Z,4.18
2023-05-14T23:37:12.156Z,4.68
2023-05-14T23:42:15.352Z,4.07
2023-05-14T23:47:18.076Z,4.90
2023-05-14T23:52:20.983Z,6.80
2023-05-14T23:57:23.825Z,4.25
